createdAt,value
2022-09-26T00:01:30.731Z,99410.72
2022-09-26T00:03:59.044Z,99414.94
2022-09-26T00:06:50.508Z,99406.38
2022-09-26T00:09:17.145Z,99404.91
2022-09-26T00:11:44.599Z,99400.34
2022-09-26T00:14:22.609Z,99391.56
2022-09-26T00:16:49.238Z,99384.84
2022-09-26T00:19:15.746Z,99392.84
2022-09-26T00:21:42.438Z,99381.56
2022-09-26T00:24:09.154Z,99382.22
2022-09-26T00:26:37.039Z,99370.69
2022-09-26T00:29:07.326Z,99374.47
2022-09-26T00:31:35.385Z,99361.91
2022-09-26T00:34:02.087Z,99372.41
2022-09-26T00:36:37.501Z,99364.88
2022-09-26T00:39:04.321Z,99365.31
2022-09-26T00:41:30.797Z,99369.09
2022-09-26T00:43:57.379Z,99358.19
2022-09-26T00:46:24.525Z,99358.63
2022-09-26T00:49:05.475Z,99356.13
2022-09-26T00:51:34.125Z,99355.72
2022-09-26T00:54:01.315Z,99364.13
2022-09-26T00:56:32.039Z,99355.31
2022-09-26T00:59:07.685Z,99356.16
2022-09-26T01:01:34.604Z,99356.97
2022-09-26T01:04:02.232Z,99345.69
2022-09-26T01:06:46.932Z,99347.78
2022-09-26T01:09:14.477Z,99352.84
2022-09-26T01:11:42.106Z,99347.78
2022-09-26T01:14:09.442Z,99344.44
2022-09-26T01:16:37.500Z,99342.78
2022-09-26T01:19:08.216Z,99341.50
2022-09-26T01:21:37.772Z,99328.94
2022-09-26T01:24:22.944Z,99338.19
2022-09-26T01:26:52.137Z,99336.94
2022-09-26T01:29:43.302Z,99334.63
2022-09-26T01:32:51.458Z,99332.34
2022-09-26T01:35:44.143Z,99326.91
2022-09-26T01:38:16.195Z,99323.56
2022-09-26T01:40:48.630Z,99322.94
2022-09-26T01:43:18.426Z,99314.75
2022-09-26T01:46:02.855Z,99310.81
2022-09-26T01:48:43.100Z,99309.75
2022-09-26T01:51:20.241Z,99301.41
2022-09-26T01:54:01.841Z,99298.06
2022-09-26T01:56:30.116Z,99289.69
2022-09-26T01:59:02.352Z,99295.56
2022-09-26T02:01:31.387Z,99294.34
2022-09-26T02:04:01.563Z,99285.53
2022-09-26T02:06:34.785Z,99293.09
2022-09-26T02:09:05.187Z,99289.75
2022-09-26T02:11:31.675Z,99288.09
2022-09-26T02:14:03.890Z,99294.16
2022-09-26T02:16:37.709Z,99300.25
2022-09-26T02:19:33.557Z,99305.69
2022-09-26T02:22:00.498Z,99304.03
2022-09-26T02:24:27.441Z,99295.69
2022-09-26T02:26:54.180Z,99299.03
2022-09-26T02:29:21.086Z,99304.06
2022-09-26T02:32:12.886Z,99306.16
2022-09-26T02:34:43.174Z,99294.03
2022-09-26T02:37:10.292Z,99288.78
2022-09-26T02:39:37.180Z,99281.91
2022-09-26T02:42:03.588Z,99281.28
2022-09-26T02:44:32.899Z,99273.13
2022-09-26T02:46:59.405Z,99277.72
2022-09-26T02:49:26.097Z,99277.28
2022-09-26T02:52:29.687Z,99273.97
2022-09-26T02:55:14.386Z,99268.09
2022-09-26T02:57:46.883Z,99272.69
2022-09-26T03:00:25.120Z,99264.75
2022-09-26T03:03:10.380Z,99261.41
2022-09-26T03:05:38.083Z,99265.13
2022-09-26T03:08:10.030Z,99255.94
2022-09-26T03:10:36.988Z,99258.06
2022-09-26T03:13:06.894Z,99260.97
2022-09-26T03:15:35.305Z,99255.53
2022-09-26T03:18:03.603Z,99254.69
2022-09-26T03:20:30.176Z,99245.91
2022-09-26T03:23:15.112Z,99247.97
2022-09-26T03:25:41.597Z,99240.47
2022-09-26T03:28:08.080Z,99239.81
2022-09-26T03:30:34.829Z,99237.75
2022-09-26T03:33:03.263Z,99233.34
2022-09-26T03:35:30.250Z,99232.91
2022-09-26T03:37:56.731Z,99234.59
2022-09-26T03:40:23.185Z,99218.28
2022-09-26T03:42:50.177Z,99227.06
2022-09-26T03:45:17.365Z,99223.72
2022-09-26T03:47:44.372Z,99219.94
2022-09-26T03:50:10.947Z,99216.59
2022-09-26T03:52:37.363Z,99208.22
2022-09-26T03:55:04.567Z,99212.00
2022-09-26T03:57:31.035Z,99204.69
2022-09-26T03:59:57.485Z,99201.97
2022-09-26T04:02:23.999Z,99202.41
2022-09-26T04:04:50.497Z,99192.56
2022-09-26T04:07:16.952Z,99188.16
2022-09-26T04:09:43.390Z,99185.66
2022-09-26T04:12:09.895Z,99176.06
2022-09-26T04:14:36.314Z,99172.69
2022-09-26T04:17:02.975Z,99171.91
2022-09-26T04:19:29.559Z,99177.13
2022-09-26T04:21:56.021Z,99175.28
2022-09-26T04:24:22.480Z,99178.19
2022-09-26T04:26:48.991Z,99173.19
2022-09-26T04:29:16.395Z,99171.94
2022-09-26T04:31:43.080Z,99164.81
2022-09-26T04:34:11.268Z,99166.91
2022-09-26T04:36:38.104Z,99169.00
2022-09-26T04:39:05.152Z,99172.75
2022-09-26T04:41:31.610Z,99184.69
2022-09-26T04:43:58.908Z,99189.06
2022-09-26T04:46:30.605Z,99187.00
2022-09-26T04:49:00.268Z,99184.88
2022-09-26T04:51:27.545Z,99175.25
2022-09-26T04:53:54.019Z,99163.97
2022-09-26T04:56:21.741Z,99179.81
2022-09-26T04:58:48.741Z,99183.53
2022-09-26T05:01:16.786Z,99175.56
2022-09-26T05:03:44.265Z,99179.97
2022-09-26T05:06:11.870Z,99182.25
2022-09-26T05:08:39.540Z,99182.25
2022-09-26T05:11:06.980Z,99175.13
2022-09-26T05:13:33.824Z,99178.91
2022-09-26T05:16:01.585Z,99176.00
2022-09-26T05:18:29.287Z,99182.25
2022-09-26T05:20:56.903Z,99176.38
2022-09-26T05:23:45.005Z,99174.28
2022-09-26T05:26:20.699Z,99177.63
2022-09-26T05:28:51.907Z,99184.28
2022-09-26T05:31:19.090Z,99182.16
2022-09-26T05:33:46.351Z,99179.44
2022-09-26T05:36:13.468Z,99161.66
2022-09-26T05:38:40.068Z,99163.34
2022-09-26T05:41:06.700Z,99164.09
2022-09-26T05:43:33.733Z,99170.19
2022-09-26T05:46:01.238Z,99172.47
2022-09-26T05:48:29.353Z,99162.19
2022-09-26T05:50:56.196Z,99173.25
2022-09-26T05:53:22.720Z,99172.38
2022-09-26T05:55:50.252Z,99168.63
2022-09-26T05:58:18.820Z,99162.28
2022-09-26T06:00:48.028Z,99143.84
2022-09-26T06:03:15.520Z,99144.25
2022-09-26T06:05:42.348Z,99155.13
2022-09-26T06:08:09.962Z,99150.44
2022-09-26T06:10:38.632Z,99149.56
2022-09-26T06:13:05.612Z,99153.06
2022-09-26T06:15:32.049Z,99140.69
2022-09-26T06:18:04.567Z,99141.44
2022-09-26T06:20:32.445Z,99144.78
2022-09-26T06:22:59.623Z,99147.69
2022-09-26T06:25:26.122Z,99148.91
2022-09-26T06:28:00.211Z,99152.59
2022-09-26T06:30:27.234Z,99146.03
2022-09-26T06:32:54.116Z,99154.13
2022-09-26T06:35:22.237Z,99152.25
2022-09-26T06:37:48.689Z,99156.63
2022-09-26T06:40:15.294Z,99157.88
2022-09-26T06:42:41.875Z,99146.44
2022-09-26T06:45:09.517Z,99141.38
2022-09-26T06:47:36.296Z,99126.22
2022-09-26T06:50:03.072Z,99116.13
2022-09-26T06:52:34.893Z,99130.50
2022-09-26T06:55:02.639Z,99137.16
2022-09-26T06:57:30.139Z,99137.75
2022-09-26T06:59:57.336Z,99143.59
2022-09-26T07:02:27.083Z,99146.94
2022-09-26T07:04:53.611Z,99152.97
2022-09-26T07:07:20.100Z,99144.72
2022-09-26T07:09:46.539Z,99159.56
2022-09-26T07:12:15.528Z,99148.41
2022-09-26T07:14:42.618Z,99155.38
2022-09-26T07:17:14.150Z,99145.59
2022-09-26T07:19:44.190Z,99136.22
2022-09-26T07:22:15.459Z,99151.13
2022-09-26T07:24:45.710Z,99149.47
2022-09-26T07:27:12.665Z,99157.53
2022-09-26T07:29:40.247Z,99158.56
2022-09-26T07:32:07.125Z,99145.75
2022-09-26T07:34:33.591Z,99139.72
2022-09-26T07:37:00.075Z,99147.56
2022-09-26T07:39:26.604Z,99149.84
2022-09-26T07:41:53.226Z,99156.25
2022-09-26T07:45:09.222Z,99147.00
2022-09-26T07:47:25.017Z,99148.63
2022-09-26T07:50:10.060Z,99161.72
2022-09-26T07:52:37.200Z,99153.88
2022-09-26T07:55:04.015Z,99144.16
2022-09-26T07:57:35.575Z,99144.38
2022-09-26T08:00:03.459Z,99152.47
2022-09-26T08:02:34.062Z,99151.13
2022-09-26T08:05:03.359Z,99153.88
2022-09-26T08:07:30.082Z,99159.84
2022-09-26T08:09:56.927Z,99157.00
2022-09-26T08:12:23.452Z,99167.47
2022-09-26T08:14:49.948Z,99183.41
2022-09-26T08:17:16.892Z,99179.34
2022-09-26T08:19:43.672Z,99172.34
2022-09-26T08:22:10.367Z,99174.56
2022-09-26T08:24:53.325Z,99170.53
2022-09-26T08:27:20.764Z,99163.88
2022-09-26T08:29:51.086Z,99180.97
2022-09-26T08:32:18.279Z,99171.22
2022-09-26T08:34:45.332Z,99170.75
2022-09-26T08:37:12.059Z,99171.97
2022-09-26T08:39:39.347Z,99166.72
2022-09-26T08:42:21.027Z,99170.34
2022-09-26T08:44:54.024Z,99184.34
2022-09-26T08:47:44.102Z,99171.25
2022-09-26T08:50:15.144Z,99165.06
2022-09-26T08:52:51.338Z,99164.31
2022-09-26T08:55:20.535Z,99167.91
2022-09-26T08:57:56.880Z,99147.13
2022-09-26T09:00:25.176Z,99143.19
2022-09-26T09:03:02.865Z,99145.81
2022-09-26T09:05:33.019Z,99143.28
2022-09-26T09:08:00.509Z,99154.31
2022-09-26T09:10:39.954Z,99162.28
2022-09-26T09:13:08.042Z,99155.13
2022-09-26T09:15:57.675Z,99149.34
2022-09-26T09:18:46.158Z,99153.28
2022-09-26T09:21:15.352Z,99160.44
2022-09-26T09:23:50.500Z,99153.97
2022-09-26T09:29:23.443Z,99144.44
2022-09-26T09:31:50.192Z,99142.69
2022-09-26T09:34:28.196Z,99156.25
2022-09-26T09:36:57.768Z,99155.84
2022-09-26T09:39:29.231Z,99135.16
2022-09-26T09:41:58.415Z,99147.75
2022-09-26T09:44:33.334Z,99130.38
2022-09-26T09:47:00.611Z,99138.09
2022-09-26T09:49:27.271Z,99134.50
2022-09-26T09:51:56.331Z,99126.06
2022-09-26T09:54:43.979Z,99137.16
2022-09-26T09:57:19.270Z,99128.63
2022-09-26T10:00:01.231Z,99118.34
2022-09-26T10:02:47.164Z,99124.16
2022-09-26T10:05:24.613Z,99137.94
2022-09-26T10:08:00.283Z,99141.88
2022-09-26T10:10:45.341Z,99149.50
2022-09-26T10:13:11.831Z,99138.22
2022-09-26T10:15:44.813Z,99154.53
2022-09-26T10:18:26.671Z,99150.34
2022-09-26T10:20:57.411Z,99152.25
2022-09-26T10:23:32.897Z,99136.19
2022-09-26T10:26:03.653Z,99137.78
2022-09-26T10:28:35.746Z,99144.47
2022-09-26T10:31:10.648Z,99145.72
2022-09-26T10:33:39.059Z,99135.25
2022-09-26T10:36:10.435Z,99125.13
2022-09-26T10:39:08.343Z,99113.63
2022-09-26T10:41:38.461Z,99124.72
2022-09-26T10:44:08.331Z,99124.03
2022-09-26T10:46:36.216Z,99123.84
2022-09-26T10:49:03.073Z,99131.47
2022-09-26T10:51:44.999Z,99129.78
2022-09-26T10:54:23.197Z,99124.28
2022-09-26T10:56:54.264Z,99126.88
2022-09-26T10:59:25.361Z,99116.91
2022-09-26T11:01:56.038Z,99117.59
2022-09-26T11:04:42.690Z,99112.09
2022-09-26T11:07:11.292Z,99101.34
2022-09-26T11:09:38.440Z,99104.16
2022-09-26T11:12:41.521Z,99103.66
2022-09-26T11:15:14.443Z,99101.47
2022-09-26T11:17:45.339Z,99098.78
2022-09-26T11:20:27.460Z,99097.06
2022-09-26T11:23:12.270Z,99100.38
2022-09-26T11:25:56.962Z,99095.16
2022-09-26T11:28:27.978Z,99089.09
2022-09-26T11:30:58.863Z,99079.97
2022-09-26T11:33:25.419Z,99071.44
2022-09-26T11:35:53.038Z,99058.91
2022-09-26T11:38:22.380Z,99063.03
2022-09-26T11:41:07.491Z,99059.94
2022-09-26T11:43:46.452Z,99058.06
2022-09-26T11:46:16.658Z,99056.06
2022-09-26T11:48:43.258Z,99053.84
2022-09-26T11:51:13.320Z,99055.31
2022-09-26T11:53:40.545Z,99056.31
2022-09-26T11:56:07.093Z,99052.28
2022-09-26T11:58:39.689Z,99050.13
2022-09-26T12:01:28.296Z,99048.31
2022-09-26T12:04:12.065Z,99045.47
2022-09-26T12:06:54.078Z,99048.72
2022-09-26T12:09:34.965Z,99038.84
2022-09-26T12:12:28.872Z,99046.44
2022-09-26T12:15:02.934Z,99045.22
2022-09-26T12:17:48.324Z,99036.50
2022-09-26T12:20:32.634Z,99032.66
2022-09-26T12:23:17.236Z,99017.53
2022-09-26T12:25:56.228Z,99022.72
2022-09-26T12:28:27.020Z,99021.06
2022-09-26T12:31:08.802Z,99027.06
2022-09-26T12:33:41.122Z,99021.56
2022-09-26T12:36:07.738Z,99022.63
2022-09-26T12:38:34.910Z,99021.47
2022-09-26T12:41:14.226Z,99027.41
2022-09-26T12:43:44.845Z,99022.94
2022-09-26T12:46:30.131Z,99016.81
2022-09-26T12:48:56.654Z,99017.25
2022-09-26T12:51:23.287Z,99002.91
2022-09-26T12:53:49.729Z,99004.41
2022-09-26T12:56:30.152Z,99007.41
2022-09-26T12:58:59.570Z,99012.13
2022-09-26T13:01:36.052Z,99007.47
2022-09-26T13:04:31.046Z,99011.16
2022-09-26T13:07:20.421Z,99007.69
2022-09-26T13:09:47.383Z,99004.22
2022-09-26T13:12:31.045Z,98993.59
2022-09-26T13:15:16.358Z,98996.25
2022-09-26T13:17:46.152Z,98997.31
2022-09-26T13:20:30.942Z,98984.81
2022-09-26T13:23:17.683Z,98975.50
2022-09-26T13:26:08.974Z,98972.78
2022-09-26T13:28:38.301Z,98967.88
2022-09-26T13:31:27.307Z,98970.53
2022-09-26T13:34:01.345Z,98979.16
2022-09-26T13:36:30.489Z,98971.38
2022-09-26T13:39:06.875Z,98977.81
2022-09-26T13:41:33.327Z,98971.69
2022-09-26T13:44:09.125Z,98963.47
2022-09-26T13:46:36.278Z,98964.53
2022-09-26T13:49:02.798Z,98967.84
2022-09-26T13:51:49.331Z,98970.00
2022-09-26T13:54:26.999Z,98953.41
2022-09-26T13:56:54.477Z,98955.00
2022-09-26T13:59:26.120Z,98953.25
2022-09-26T14:02:14.298Z,98950.81
2022-09-26T14:04:40.888Z,98961.47
2022-09-26T14:07:29.767Z,98961.63
2022-09-26T14:10:03.212Z,98963.44
2022-09-26T14:12:33.194Z,98957.28
2022-09-26T14:15:20.871Z,98957.63
2022-09-26T14:17:47.422Z,98952.56
2022-09-26T14:20:23.534Z,98955.44
2022-09-26T14:22:52.722Z,98962.09
2022-09-26T14:25:37.766Z,98971.28
2022-09-26T14:28:32.149Z,98967.25
2022-09-26T14:31:11.208Z,98976.41
2022-09-26T14:33:38.048Z,98976.78
2022-09-26T14:36:36.958Z,98963.59
2022-09-26T14:39:04.276Z,98951.38
2022-09-26T14:41:32.811Z,98944.16
2022-09-26T14:44:00.576Z,98930.72
2022-09-26T14:46:27.928Z,98931.53
2022-09-26T14:49:01.773Z,98918.72
2022-09-26T14:51:31.132Z,98920.50
2022-09-26T14:54:05.497Z,98923.22
2022-09-26T14:56:40.737Z,98926.53
2022-09-26T14:59:16.128Z,98922.72
2022-09-26T15:01:44.126Z,98927.00
2022-09-26T15:04:16.516Z,98929.09
2022-09-26T15:06:44.359Z,98917.47
2022-09-26T15:09:12.530Z,98905.84
2022-09-26T15:11:47.661Z,98898.13
2022-09-26T15:14:22.695Z,98902.53
2022-09-26T15:16:51.066Z,98905.13
2022-09-26T15:19:21.159Z,98893.84
2022-09-26T15:21:53.530Z,98900.41
2022-09-26T15:24:37.959Z,98894.38
2022-09-26T15:27:27.538Z,98903.59
2022-09-26T15:29:58.111Z,98895.75
2022-09-26T15:32:26.716Z,98891.25
2022-09-26T15:34:54.273Z,98893.84
2022-09-26T15:37:25.346Z,98886.13
2022-09-26T15:39:51.900Z,98882.66
2022-09-26T15:42:49.026Z,98877.66
2022-09-26T15:45:36.017Z,98875.41
2022-09-26T15:48:22.399Z,98877.41
2022-09-26T15:50:48.856Z,98877.22
2022-09-26T15:53:21.411Z,98872.13
2022-09-26T15:55:47.965Z,98887.22
2022-09-26T15:58:17.253Z,98898.59
2022-09-26T16:00:46.364Z,98906.63
2022-09-26T16:03:38.879Z,98900.19
2022-09-26T16:06:19.240Z,98875.44
2022-09-26T16:08:50.522Z,98853.81
2022-09-26T16:11:17.389Z,98849.13
2022-09-26T16:13:48.220Z,98850.94
2022-09-26T16:16:18.891Z,98839.28
2022-09-26T16:18:47.234Z,98829.47
2022-09-26T16:21:17.875Z,98853.94
2022-09-26T16:23:46.018Z,98875.53
2022-09-26T16:26:23.179Z,98913.59
2022-09-26T16:28:52.832Z,98976.38
2022-09-26T16:31:24.581Z,99000.91
2022-09-26T16:33:52.999Z,98964.88
2022-09-26T16:36:19.451Z,98949.06
2022-09-26T16:38:53.232Z,98951.59
2022-09-26T16:41:59.521Z,98944.91
2022-09-26T16:44:28.751Z,98924.69
2022-09-26T16:47:02.519Z,98911.09
2022-09-26T16:49:30.839Z,98915.28
2022-09-26T16:52:15.964Z,98907.75
2022-09-26T16:54:42.683Z,98911.97
2022-09-26T16:57:15.242Z,98906.53
2022-09-26T16:59:41.756Z,98907.75
2022-09-26T17:02:09.062Z,98912.19
2022-09-26T17:04:36.723Z,98916.97
2022-09-26T17:07:14.605Z,98913.59
2022-09-26T17:09:42.704Z,98913.38
2022-09-26T17:12:15.171Z,98914.88
2022-09-26T17:14:42.590Z,98904.44
2022-09-26T17:17:16.392Z,98915.69
2022-09-26T17:19:44.503Z,98926.16
2022-09-26T17:22:15.021Z,98927.03
2022-09-26T17:24:42.493Z,98938.34
2022-09-26T17:27:14.574Z,98947.53
2022-09-26T17:29:43.302Z,98962.63
2022-09-26T17:32:13.255Z,98959.69
2022-09-26T17:34:41.220Z,98958.47
2022-09-26T17:37:09.698Z,98949.69
2022-09-26T17:39:37.159Z,98952.22
2022-09-26T17:42:05.018Z,98943.47
2022-09-26T17:44:32.884Z,98931.78
2022-09-26T17:47:01.017Z,98928.47
2022-09-26T17:49:35.894Z,98936.63
2022-09-26T17:52:04.784Z,98948.50
2022-09-26T17:54:34.655Z,98961.06
2022-09-26T17:57:02.534Z,98954.81
2022-09-26T17:59:31.459Z,98959.38
2022-09-26T18:02:03.952Z,98974.00
2022-09-26T18:04:30.623Z,98968.59
2022-09-26T18:07:02.277Z,98962.50
2022-09-26T18:09:32.786Z,98967.34
2022-09-26T18:12:06.108Z,98981.53
2022-09-26T18:14:40.728Z,98992.38
2022-09-26T18:17:24.070Z,99007.03
2022-09-26T18:19:54.028Z,99016.22
2022-09-26T18:22:28.838Z,99027.06
2022-09-26T18:25:03.053Z,99018.72
2022-09-26T18:27:43.418Z,99020.81
2022-09-26T18:30:11.881Z,98991.38
2022-09-26T18:32:46.548Z,98966.09
2022-09-26T18:35:25.615Z,98959.00
2022-09-26T18:38:02.381Z,98948.53
2022-09-26T18:40:30.374Z,98940.88
2022-09-26T18:42:58.326Z,98943.16
2022-09-26T18:45:39.975Z,98951.94
2022-09-26T18:48:10.564Z,98963.22
2022-09-26T18:50:42.050Z,98964.00
2022-09-26T18:53:18.300Z,98968.63
2022-09-26T18:56:09.193Z,98967.38
2022-09-26T18:58:37.065Z,98963.00
2022-09-26T19:01:09.928Z,98955.91
2022-09-26T19:03:40.984Z,98931.47
2022-09-26T19:06:28.007Z,98914.38
2022-09-26T19:08:59.966Z,98917.72
2022-09-26T19:11:29.824Z,98913.53
2022-09-26T19:14:01.130Z,98907.28
2022-09-26T19:16:29.760Z,98899.34
2022-09-26T19:18:57.513Z,98899.56
2022-09-26T19:21:59.082Z,98908.13
2022-09-26T19:24:31.591Z,98914.00
2022-09-26T19:27:06.506Z,98902.28
2022-09-26T19:29:43.866Z,98906.88
2022-09-26T19:32:21.728Z,98903.13
2022-09-26T19:34:55.594Z,98892.28
2022-09-26T19:37:24.359Z,98897.72
2022-09-26T19:39:54.683Z,98897.72
2022-09-26T19:42:22.464Z,98894.34
2022-09-26T19:44:51.344Z,98894.78
2022-09-26T19:47:23.355Z,98899.34
2022-09-26T19:49:52.445Z,98899.34
2022-09-26T19:52:20.823Z,98904.78
2022-09-26T19:54:48.911Z,98904.78
2022-09-26T19:57:24.924Z,98906.88
2022-09-26T19:59:52.385Z,98917.75
2022-09-26T20:02:27.487Z,98916.06
2022-09-26T20:04:54.207Z,98916.50
2022-09-26T20:07:22.906Z,98929.88
2022-09-26T20:09:49.387Z,98931.53
2022-09-26T20:12:16.122Z,98922.38
2022-09-26T20:14:43.121Z,98924.44
2022-09-26T20:17:18.117Z,98918.59
2022-09-26T20:19:48.595Z,98918.59
2022-09-26T20:22:19.420Z,98907.75
2022-09-26T20:24:48.002Z,98923.41
2022-09-26T20:27:19.407Z,98922.38
2022-09-26T20:30:05.445Z,98921.91
2022-09-26T20:32:32.222Z,98941.97
2022-09-26T20:35:00.556Z,98945.72
2022-09-26T20:37:33.206Z,98932.97
2022-09-26T20:40:01.107Z,98940.69
2022-09-26T20:42:32.124Z,98932.34
2022-09-26T20:44:59.351Z,98928.16
2022-09-26T20:47:27.020Z,98931.50
2022-09-26T20:50:01.056Z,98926.94
2022-09-26T20:52:29.038Z,98918.56
2022-09-26T20:54:56.362Z,98919.38
2022-09-26T20:57:23.638Z,98926.50
2022-09-26T20:59:52.307Z,98932.75
2022-09-26T21:02:48.311Z,98929.84
2022-09-26T21:05:19.758Z,98918.56
2022-09-26T21:07:46.424Z,98920.22
2022-09-26T21:10:29.328Z,98930.03
2022-09-26T21:12:56.293Z,98931.06
2022-09-26T21:15:23.759Z,98921.91
2022-09-26T21:17:51.424Z,98909.56
2022-09-26T21:20:25.736Z,98897.66
2022-09-26T21:22:52.742Z,98902.25
2022-09-26T21:25:20.533Z,98897.66
2022-09-26T21:27:52.294Z,98894.31
2022-09-26T21:30:18.954Z,98891.22
2022-09-26T21:32:48.328Z,98883.91
2022-09-26T21:35:16.599Z,98880.16
2022-09-26T21:37:45.193Z,98878.47
2022-09-26T21:40:13.121Z,98864.28
2022-09-26T21:42:40.341Z,98872.44
2022-09-26T21:45:09.849Z,98878.91
2022-09-26T21:47:39.220Z,98875.16
2022-09-26T21:50:11.445Z,98879.50
2022-09-26T21:52:45.829Z,98869.28
2022-09-26T21:55:24.156Z,98869.28
2022-09-26T21:57:52.188Z,98867.63
2022-09-26T22:00:18.676Z,98873.03
2022-09-26T22:02:45.247Z,98868.44
2022-09-26T22:05:12.542Z,98865.94
2022-09-26T22:07:39.395Z,98854.03
2022-09-26T22:10:06.774Z,98851.34
2022-09-26T22:12:33.318Z,98856.75
2022-09-26T22:14:59.826Z,98849.66
2022-09-26T22:17:27.049Z,98853.44
2022-09-26T22:19:53.598Z,98843.84
2022-09-26T22:22:22.266Z,98835.91
2022-09-26T22:24:48.752Z,98831.53
2022-09-26T22:27:15.376Z,98829.25
2022-09-26T22:29:41.908Z,98820.50
2022-09-26T22:32:08.679Z,98824.25
2022-09-26T22:34:35.119Z,98818.00
2022-09-26T22:37:01.648Z,98812.16
2022-09-26T22:39:28.211Z,98817.00
2022-09-26T22:41:55.403Z,98818.00
2022-09-26T22:44:23.042Z,98818.41
2022-09-26T22:46:49.651Z,98820.53
2022-09-26T22:49:16.198Z,98823.44
2022-09-26T22:51:42.748Z,98825.31
2022-09-26T22:54:09.272Z,98822.00
2022-09-26T22:56:35.824Z,98828.44
2022-09-26T22:59:03.182Z,98830.56
2022-09-26T23:01:29.767Z,98828.88
2022-09-26T23:04:00.525Z,98832.66
2022-09-26T23:06:27.471Z,98828.28
2022-09-26T23:08:54.058Z,98832.66
2022-09-26T23:11:20.592Z,98821.16
2022-09-26T23:13:47.083Z,98820.13
2022-09-26T23:16:16.238Z,98819.91
2022-09-26T23:18:43.360Z,98821.81
2022-09-26T23:21:11.156Z,98826.59
2022-09-26T23:23:38.175Z,98822.22
2022-09-26T23:26:05.938Z,98805.97
2022-09-26T23:28:33.494Z,98805.09
2022-09-26T23:31:06.725Z,98786.34
2022-09-26T23:33:33.473Z,98786.34
2022-09-26T23:36:00.492Z,98774.88
2022-09-26T23:38:31.079Z,98775.91
2022-09-26T23:40:57.617Z,98768.84
2022-09-26T23:43:24.200Z,98766.34
2022-09-26T23:45:50.780Z,98763.63
2022-09-26T23:48:17.404Z,98760.28
2022-09-26T23:50:44.457Z,98762.59
2022-09-26T23:53:11.127Z,98763.03
2022-09-26T23:55:37.785Z,98761.78
2022-09-26T23:58:04.295Z,98765.56
